createdAt,value
2022-08-19T00:02:39.590Z,99893.59
2022-08-19T00:05:52.714Z,99902.81
2022-08-19T00:08:55.232Z,99904.19
2022-08-19T00:11:58.759Z,99908.84
2022-08-19T00:15:00.808Z,99905.75
2022-08-19T00:18:03.230Z,99896.72
2022-08-19T00:21:09.632Z,99902.13
2022-08-19T00:24:14.765Z,99908.63
2022-08-19T00:27:25.619Z,99907.84
2022-08-19T00:30:29.292Z,99902.87
2022-08-19T00:33:35.410Z,99910.22
2022-08-19T00:36:38.490Z,99916.38
2022-08-19T00:39:40.703Z,99912.06
2022-08-19T00:42:44.063Z,99913.44
2022-08-19T00:45:46.198Z,99922.31
2022-08-19T00:48:48.721Z,99913.59
2022-08-19T00:51:54.787Z,99900.47
2022-08-19T00:54:59.192Z,99892.28
2022-08-19T00:58:09.006Z,99900.63
2022-08-19T01:01:11.870Z,99902.31
2022-08-19T01:04:14.591Z,99891.78
2022-08-19T01:07:19.736Z,99900.31
2022-08-19T01:10:26.186Z,99896.34
2022-08-19T01:13:44.509Z,99887.13
2022-08-19T01:16:55.419Z,99896.34
2022-08-19T01:19:57.875Z,99891.72
2022-08-19T01:23:00.198Z,99897.34
2022-08-19T01:26:02.620Z,99882.38
2022-08-19T01:29:05.235Z,99878.16
2022-08-19T01:32:33.226Z,99888.50
2022-08-19T01:35:36.780Z,99892.91
2022-08-19T01:38:44.122Z,99881.94
2022-08-19T01:41:47.973Z,99871.75
2022-08-19T01:44:50.859Z,99874.56
2022-08-19T01:48:01.277Z,99871.59
2022-08-19T01:51:05.660Z,99879.91
2022-08-19T01:54:09.817Z,99874.75
2022-08-19T01:57:15.326Z,99853.47
2022-08-19T02:00:20.065Z,99859.81
2022-08-19T02:03:23.699Z,99851.00
2022-08-19T02:06:26.993Z,99849.06
2022-08-19T02:09:29.565Z,99846.81
2022-08-19T02:12:31.724Z,99853.09
2022-08-19T02:15:34.187Z,99845.06
2022-08-19T02:18:36.487Z,99830.41
2022-08-19T02:21:39.089Z,99839.72
2022-08-19T02:24:41.448Z,99838.94
2022-08-19T02:27:44.487Z,99845.62
2022-08-19T02:30:48.149Z,99839.91
2022-08-19T02:33:51.425Z,99826.37
2022-08-19T02:36:53.569Z,99830.63
2022-08-19T02:39:56.380Z,99840.78
2022-08-19T02:42:58.507Z,99857.38
2022-08-19T02:46:01.289Z,99844.09
2022-08-19T02:49:07.274Z,99859.81
2022-08-19T02:52:09.905Z,99851.91
2022-08-19T02:55:12.072Z,99850.22
2022-08-19T02:58:16.494Z,99861.41
2022-08-19T03:01:43.009Z,99871.06
2022-08-19T03:04:45.751Z,99866.31
2022-08-19T03:07:47.891Z,99874.62
2022-08-19T03:10:50.287Z,99872.50
2022-08-19T03:13:54.393Z,99875.81
2022-08-19T03:16:56.794Z,99881.09
2022-08-19T03:19:58.940Z,99876.94
2022-08-19T03:23:01.362Z,99881.94
2022-08-19T03:26:15.884Z,99895.72
2022-08-19T03:29:30.799Z,99901.34
2022-08-19T03:32:33.848Z,99892.16
2022-08-19T03:35:40.030Z,99888.81
2022-08-19T03:38:56.412Z,99891.50
2022-08-19T03:42:45.452Z,99892.16
2022-08-19T03:45:25.481Z,99893.63
2022-08-19T03:48:27.954Z,99900.47
2022-08-19T03:51:32.923Z,99894.25
2022-08-19T03:54:36.167Z,99898.19
2022-08-19T03:57:38.300Z,99904.22
2022-08-19T04:00:43.844Z,99917.81
2022-08-19T04:03:47.467Z,99915.69
2022-08-19T04:06:50.183Z,99906.41
2022-08-19T04:09:52.978Z,99908.41
2022-08-19T04:12:55.166Z,99917.41
2022-08-19T04:15:57.720Z,99933.91
2022-08-19T04:19:01.807Z,99929.12
2022-08-19T04:22:05.065Z,99937.31
2022-08-19T04:25:07.438Z,99948.31
2022-08-19T04:28:12.179Z,99931.72
2022-08-19T04:31:20.460Z,99928.84
2022-08-19T04:34:27.657Z,99929.50
2022-08-19T04:37:35.058Z,99929.56
2022-08-19T04:41:02.059Z,99942.84
2022-08-19T04:44:04.664Z,99941.88
2022-08-19T04:47:11.347Z,99945.63
2022-08-19T04:50:13.662Z,99962.25
2022-08-19T04:53:16.278Z,99941.19
2022-08-19T04:56:22.686Z,99940.50
2022-08-19T04:59:25.045Z,99936.28
2022-08-19T05:02:27.162Z,99928.41
2022-08-19T05:05:29.579Z,99942.94
2022-08-19T05:08:47.858Z,99938.59
2022-08-19T05:11:53.826Z,99947.41
2022-08-19T05:14:57.743Z,99939.09
2022-08-19T05:18:18.625Z,99941.75
2022-08-19T05:21:42.818Z,99945.34
2022-08-19T05:25:09.388Z,99947.06
2022-08-19T05:28:07.505Z,99946.50
2022-08-19T05:31:09.945Z,99948.16
2022-08-19T05:34:20.282Z,99945.19
2022-08-19T05:37:23.184Z,99944.34
2022-08-19T05:40:25.300Z,99953.59
2022-08-19T05:43:29.257Z,99951.28
2022-08-19T05:46:31.402Z,99951.94
2022-08-19T05:49:37.069Z,99948.34
2022-08-19T05:52:54.256Z,99944.97
2022-08-19T05:55:56.682Z,99953.63
2022-08-19T05:59:02.084Z,99947.50
2022-08-19T06:02:07.543Z,99945.09
2022-08-19T06:05:10.709Z,99948.66
2022-08-19T06:08:12.880Z,99960.47
2022-08-19T06:11:35.826Z,99954.78
2022-08-19T06:14:41.693Z,99953.03
2022-08-19T06:17:47.756Z,99954.56
2022-08-19T06:20:58.445Z,99949.19
2022-08-19T06:24:01.279Z,99949.59
2022-08-19T06:27:06.609Z,99951.84
2022-08-19T06:30:09.611Z,99946.59
2022-08-19T06:33:11.621Z,99950.78
2022-08-19T06:36:32.327Z,99925.84
2022-08-19T06:39:37.572Z,99925.53
2022-08-19T06:42:40.288Z,99928.69
2022-08-19T06:45:53.321Z,99941.31
2022-08-19T06:48:56.495Z,99941.16
2022-08-19T06:51:59.515Z,99929.16
2022-08-19T06:55:06.550Z,99932.63
2022-08-19T06:58:10.193Z,99927.91
2022-08-19T07:01:12.708Z,99929.22
2022-08-19T07:04:18.980Z,99937.75
2022-08-19T07:07:23.200Z,99937.81
2022-08-19T07:10:26.214Z,99954.41
2022-08-19T07:13:28.636Z,99953.28
2022-08-19T07:16:31.106Z,99969.47
2022-08-19T07:19:35.163Z,99963.13
2022-08-19T07:22:41.541Z,99961.66
2022-08-19T07:25:44.572Z,99957.53
2022-08-19T07:28:51.524Z,99961.94
2022-08-19T07:31:57.387Z,99965.94
2022-08-19T07:35:20.996Z,99960.12
2022-08-19T07:38:28.111Z,99959.03
2022-08-19T07:41:31.695Z,99950.78
2022-08-19T07:44:35.557Z,99949.88
2022-08-19T07:47:49.020Z,99947.34
2022-08-19T07:50:58.961Z,99946.38
2022-08-19T07:54:01.621Z,99945.56
2022-08-19T07:57:04.988Z,99944.34
2022-08-19T08:00:08.208Z,99949.63
2022-08-19T08:03:16.633Z,99955.97
2022-08-19T08:06:38.153Z,99949.94
2022-08-19T08:09:42.916Z,99946.59
2022-08-19T08:13:09.342Z,99952.66
2022-08-19T08:16:14.996Z,99951.28
2022-08-19T08:19:25.610Z,99950.47
2022-08-19T08:22:46.742Z,99952.91
2022-08-19T08:25:49.941Z,99958.31
2022-08-19T08:28:53.290Z,99952.53
2022-08-19T08:31:59.630Z,99952.38
2022-08-19T08:35:02.424Z,99942.50
2022-08-19T08:38:05.272Z,99946.34
2022-08-19T08:41:20.203Z,99942.78
2022-08-19T08:44:38.123Z,99954.59
2022-08-19T08:47:42.483Z,99943.31
2022-08-19T08:50:48.545Z,99932.87
2022-08-19T08:53:55.960Z,99928.50
2022-08-19T08:56:59.412Z,99920.75
2022-08-19T09:00:07.213Z,99915.00
2022-08-19T09:03:31.481Z,99923.28
2022-08-19T09:06:37.793Z,99914.47
2022-08-19T09:09:49.522Z,99930.91
2022-08-19T09:13:10.375Z,99925.47
2022-08-19T09:16:21.767Z,99915.88
2022-08-19T09:19:31.478Z,99926.84
2022-08-19T09:22:37.200Z,99916.91
2022-08-19T09:25:41.097Z,99912.81
2022-08-19T09:28:48.799Z,99907.44
2022-08-19T09:31:51.152Z,99905.84
2022-08-19T09:34:55.646Z,99899.69
2022-08-19T09:38:00.609Z,99898.16
2022-08-19T09:41:05.685Z,99901.78
2022-08-19T09:44:09.269Z,99891.31
2022-08-19T09:47:14.712Z,99883.09
2022-08-19T09:50:17.815Z,99871.31
2022-08-19T09:53:23.445Z,99874.56
2022-08-19T09:56:28.921Z,99872.63
2022-08-19T09:59:31.367Z,99879.13
2022-08-19T10:02:36.355Z,99860.75
2022-08-19T10:05:54.475Z,99857.03
2022-08-19T10:08:57.235Z,99861.22
2022-08-19T10:12:02.580Z,99862.69
2022-08-19T10:15:07.098Z,99870.25
2022-08-19T10:18:09.804Z,99860.22
2022-08-19T10:21:18.680Z,99852.78
2022-08-19T10:24:21.457Z,99849.66
2022-08-19T10:27:24.214Z,99850.41
2022-08-19T10:30:28.829Z,99851.47
2022-08-19T10:33:39.213Z,99844.38
2022-08-19T10:36:56.378Z,99850.63
2022-08-19T10:40:04.511Z,99848.41
2022-08-19T10:43:07.431Z,99847.91
2022-08-19T10:46:16.436Z,99851.22
2022-08-19T10:49:20.166Z,99844.66
2022-08-19T10:52:34.938Z,99851.16
2022-08-19T10:55:59.630Z,99853.56
2022-08-19T10:59:04.274Z,99841.87
2022-08-19T11:02:10.813Z,99846.06
2022-08-19T11:05:14.430Z,99842.94
2022-08-19T11:08:23.074Z,99842.25
2022-08-19T11:11:26.544Z,99843.72
2022-08-19T11:14:29.088Z,99842.25
2022-08-19T11:17:36.907Z,99840.91
2022-08-19T11:20:39.287Z,99842.25
2022-08-19T11:23:41.375Z,99835.72
2022-08-19T11:26:44.468Z,99834.50
2022-08-19T11:29:46.508Z,99835.81
2022-08-19T11:32:49.659Z,99839.47
2022-08-19T11:35:51.843Z,99833.50
2022-08-19T11:38:54.743Z,99839.34
2022-08-19T11:41:59.177Z,99832.13
2022-08-19T11:45:01.788Z,99835.19
2022-08-19T11:48:04.499Z,99828.34
2022-08-19T11:51:10.349Z,99827.81
2022-08-19T11:54:15.120Z,99823.53
2022-08-19T11:57:17.970Z,99828.69
2022-08-19T12:00:20.344Z,99812.34
2022-08-19T12:03:23.196Z,99808.13
2022-08-19T12:06:30.014Z,99798.22
2022-08-19T12:09:33.220Z,99797.00
2022-08-19T12:12:35.571Z,99799.66
2022-08-19T12:15:39.285Z,99804.22
2022-08-19T12:18:47.223Z,99808.75
2022-08-19T12:21:50.332Z,99803.37
2022-08-19T12:24:54.197Z,99800.50
2022-08-19T12:27:57.596Z,99808.25
2022-08-19T12:31:00.451Z,99811.81
2022-08-19T12:34:04.863Z,99811.78
2022-08-19T12:37:07.467Z,99809.31
2022-08-19T12:40:12.675Z,99811.09
2022-08-19T12:43:16.568Z,99804.09
2022-08-19T12:46:20.425Z,99789.81
2022-08-19T12:49:52.514Z,99782.66
2022-08-19T12:52:49.043Z,99780.16
2022-08-19T12:55:58.717Z,99776.19
2022-08-19T12:59:05.715Z,99770.91
2022-08-19T13:02:08.758Z,99772.97
2022-08-19T13:05:14.150Z,99769.09
2022-08-19T13:08:16.466Z,99774.78
2022-08-19T13:11:21.512Z,99781.81
2022-08-19T13:14:23.968Z,99782.81
2022-08-19T13:17:26.382Z,99780.31
2022-08-19T13:20:28.693Z,99763.09
2022-08-19T13:23:31.520Z,99766.53
2022-08-19T13:26:33.907Z,99762.47
2022-08-19T13:29:55.043Z,99755.91
2022-08-19T13:33:12.366Z,99755.84
2022-08-19T13:36:14.737Z,99760.09
2022-08-19T13:39:17.305Z,99762.22
2022-08-19T13:42:20.202Z,99752.94
2022-08-19T13:45:25.330Z,99748.09
2022-08-19T13:48:28.112Z,99746.44
2022-08-19T13:51:30.288Z,99745.62
2022-08-19T13:54:33.414Z,99740.13
2022-08-19T13:57:36.240Z,99734.03
2022-08-19T14:00:45.538Z,99735.25
2022-08-19T14:03:48.324Z,99727.19
2022-08-19T14:06:50.461Z,99767.13
2022-08-19T14:09:52.844Z,99760.03
2022-08-19T14:12:57.262Z,99764.25
2022-08-19T14:15:59.650Z,99759.09
2022-08-19T14:19:02.006Z,99746.78
2022-08-19T14:22:06.246Z,99755.97
2022-08-19T14:25:11.405Z,99755.63
2022-08-19T14:28:13.856Z,99758.88
2022-08-19T14:31:19.822Z,99750.91
2022-08-19T14:34:23.112Z,99754.06
2022-08-19T14:37:25.286Z,99760.22
2022-08-19T14:40:30.460Z,99740.00
2022-08-19T14:43:32.740Z,99751.22
2022-08-19T14:46:35.280Z,99747.31
2022-08-19T14:49:41.193Z,99754.31
2022-08-19T14:52:47.370Z,99772.53
2022-08-19T14:55:49.612Z,99770.31
2022-08-19T14:58:52.861Z,99793.88
2022-08-19T15:01:55.067Z,99792.78
2022-08-19T15:04:58.093Z,99797.66
2022-08-19T15:08:04.616Z,99797.63
2022-08-19T15:11:15.854Z,99820.81
2022-08-19T15:14:18.012Z,99812.91
2022-08-19T15:17:20.445Z,99818.97
2022-08-19T15:20:23.461Z,99822.31
2022-08-19T15:23:26.314Z,99820.66
2022-08-19T15:26:28.998Z,99833.56
2022-08-19T15:29:31.489Z,99834.63
2022-08-19T15:32:33.529Z,99851.25
2022-08-19T15:35:35.927Z,99870.03
2022-08-19T15:38:41.111Z,99863.09
2022-08-19T15:41:46.558Z,99862.75
2022-08-19T15:44:48.746Z,99864.59
2022-08-19T15:47:52.854Z,99837.75
2022-08-19T15:50:54.969Z,99796.09
2022-08-19T15:53:59.610Z,99799.38
2022-08-19T15:57:20.370Z,99804.63
2022-08-19T16:00:41.177Z,99798.84
2022-08-19T16:04:02.055Z,99807.34
2022-08-19T16:07:04.491Z,99805.28
2022-08-19T16:10:25.889Z,99802.78
2022-08-19T16:13:29.689Z,99794.09
2022-08-19T16:16:34.169Z,99778.84
2022-08-19T16:19:36.366Z,99780.47
2022-08-19T16:22:40.146Z,99776.50
2022-08-19T16:25:42.297Z,99765.53
2022-08-19T16:28:45.279Z,99786.25
2022-08-19T16:31:50.925Z,99804.94
2022-08-19T16:34:53.650Z,99803.00
2022-08-19T16:37:55.960Z,99805.97
2022-08-19T16:41:00.502Z,99819.25
2022-08-19T16:44:02.957Z,99833.97
2022-08-19T16:47:05.497Z,99863.94
2022-08-19T16:50:08.009Z,99879.41
2022-08-19T16:53:10.399Z,99894.56
2022-08-19T16:56:12.781Z,99906.09
2022-08-19T16:59:16.590Z,99916.00
2022-08-19T17:02:20.432Z,99930.44
2022-08-19T17:05:24.677Z,99938.69
2022-08-19T17:08:26.856Z,99931.66
2022-08-19T17:11:32.798Z,99936.69
2022-08-19T17:14:34.905Z,99920.22
2022-08-19T17:17:37.361Z,99901.19
2022-08-19T17:20:41.402Z,99856.31
2022-08-19T17:23:44.234Z,99834.66
2022-08-19T17:26:46.540Z,99836.31
2022-08-19T17:29:49.194Z,99815.94
2022-08-19T17:32:51.833Z,99801.53
2022-08-19T17:35:54.248Z,99777.66
2022-08-19T17:38:59.064Z,99758.34
2022-08-19T17:42:02.785Z,99752.38
2022-08-19T17:45:05.997Z,99748.56
2022-08-19T17:48:08.865Z,99759.84
2022-08-19T17:51:25.590Z,99745.72
2022-08-19T17:54:28.661Z,99718.87
2022-08-19T17:57:41.178Z,99714.59
2022-08-19T18:00:54.001Z,99717.78
2022-08-19T18:03:57.058Z,99728.44
2022-08-19T18:07:00.998Z,99755.06
2022-08-19T18:10:03.640Z,99780.56
2022-08-19T18:13:17.417Z,99815.56
2022-08-19T18:16:22.104Z,99877.16
2022-08-19T18:19:25.586Z,99959.50
2022-08-19T18:22:38.776Z,99958.59
2022-08-19T18:25:43.713Z,99940.91
2022-08-19T18:28:49.687Z,99931.31
2022-08-19T18:31:54.021Z,100002.53
2022-08-19T18:34:56.649Z,100030.72
2022-08-19T18:38:01.107Z,100068.97
2022-08-19T18:41:22.700Z,100086.69
2022-08-19T18:44:43.453Z,100108.41
2022-08-19T18:48:04.468Z,100118.56
2022-08-19T18:51:07.462Z,100124.84
2022-08-19T18:54:10.403Z,100085.72
2022-08-19T18:57:13.596Z,100091.94
2022-08-19T19:00:16.644Z,100070.56
2022-08-19T19:03:18.769Z,100056.22
2022-08-19T19:06:27.570Z,100030.34
2022-08-19T19:09:29.868Z,100011.28
2022-08-19T19:12:36.443Z,99977.38
2022-08-19T19:15:39.477Z,99967.19
2022-08-19T19:18:42.541Z,99971.97
2022-08-19T19:21:47.570Z,99946.22
2022-08-19T19:24:51.276Z,99968.91
2022-08-19T19:27:54.879Z,99959.16
2022-08-19T19:31:00.556Z,99974.00
2022-08-19T19:34:02.623Z,99950.09
2022-08-19T19:37:05.279Z,99964.44
2022-08-19T19:40:07.791Z,99918.16
2022-08-19T19:43:10.334Z,99889.66
2022-08-19T19:46:13.847Z,99895.94
2022-08-19T19:49:16.535Z,99876.94
2022-08-19T19:52:19.494Z,99872.09
2022-08-19T19:55:22.345Z,99879.13
2022-08-19T19:58:29.298Z,99852.31
2022-08-19T20:01:31.830Z,99840.28
2022-08-19T20:04:37.335Z,99864.50
2022-08-19T20:07:59.245Z,99895.53
2022-08-19T20:11:03.902Z,100001.88
2022-08-19T20:14:11.623Z,100169.75
2022-08-19T20:17:14.046Z,100160.84
2022-08-19T20:20:17.939Z,100185.69
2022-08-19T20:23:21.910Z,100203.31
2022-08-19T20:26:32.245Z,100204.94
2022-08-19T20:29:39.628Z,100193.44
2022-08-19T20:32:43.788Z,100205.09
2022-08-19T20:35:49.483Z,100224.59
2022-08-19T20:38:52.091Z,100238.97
2022-08-19T20:41:56.356Z,100251.41
2022-08-19T20:44:58.761Z,100269.44
2022-08-19T20:48:03.113Z,100260.72
2022-08-19T20:51:06.727Z,100249.03
2022-08-19T20:54:09.161Z,100263.22
2022-08-19T20:57:11.290Z,100268.66
2022-08-19T21:00:14.914Z,100263.75
2022-08-19T21:03:19.260Z,100266.25
2022-08-19T21:06:22.114Z,100242.03
2022-08-19T21:09:25.342Z,100246.59
2022-08-19T21:12:28.138Z,100224.84
2022-08-19T21:15:30.703Z,100204.34
2022-08-19T21:18:35.362Z,100175.03
2022-08-19T21:21:37.549Z,100147.94
2022-08-19T21:24:40.053Z,100126.91
2022-08-19T21:27:42.311Z,100110.09
2022-08-19T21:30:44.731Z,100104.53
2022-08-19T21:33:46.896Z,100078.16
2022-08-19T21:36:49.314Z,100072.59
2022-08-19T21:39:51.504Z,100085.03
2022-08-19T21:42:54.293Z,100111.13
2022-08-19T21:45:56.423Z,100081.69
2022-08-19T21:48:59.111Z,100052.66
2022-08-19T21:52:01.931Z,100036.00
2022-08-19T21:55:05.389Z,100037.88
2022-08-19T21:58:07.532Z,100006.56
2022-08-19T22:01:10.048Z,99983.09
2022-08-19T22:04:12.496Z,99994.69
2022-08-19T22:07:14.970Z,99998.03
2022-08-19T22:10:18.325Z,99994.44
2022-08-19T22:13:22.007Z,99989.69
2022-08-19T22:16:24.623Z,99990.72
2022-08-19T22:19:29.235Z,99958.28
2022-08-19T22:22:33.102Z,99937.78
2022-08-19T22:25:39.617Z,99940.66
2022-08-19T22:28:42.776Z,99934.31
2022-08-19T22:31:45.094Z,99936.44
2022-08-19T22:34:47.510Z,99932.53
2022-08-19T22:37:51.125Z,99913.38
2022-08-19T22:40:54.242Z,99897.19
2022-08-19T22:43:56.491Z,99895.47
2022-08-19T22:46:58.935Z,99883.03
2022-08-19T22:50:01.181Z,99885.50
2022-08-19T22:53:07.178Z,99892.00
2022-08-19T22:56:15.060Z,99903.16
2022-08-19T22:59:17.956Z,99887.19
2022-08-19T23:02:21.496Z,99864.63
2022-08-19T23:05:28.956Z,99859.78
2022-08-19T23:08:31.476Z,99850.84
2022-08-19T23:11:41.550Z,99851.88
2022-08-19T23:14:44.449Z,99868.53
2022-08-19T23:17:46.867Z,99880.78
2022-08-19T23:20:49.178Z,99883.84
2022-08-19T23:23:51.672Z,99893.09
2022-08-19T23:27:12.431Z,99896.81
2022-08-19T23:30:26.739Z,99882.19
2022-08-19T23:33:46.503Z,99874.09
2022-08-19T23:36:54.145Z,99868.31
2022-08-19T23:39:56.329Z,99862.09
2022-08-19T23:42:58.850Z,99866.91
2022-08-19T23:46:10.570Z,99851.78
2022-08-19T23:49:14.914Z,99853.47
2022-08-19T23:52:17.030Z,99860.97
2022-08-19T23:55:21.689Z,99869.22
2022-08-19T23:58:24.377Z,99868.00
